sensor_id;sensor_type;location;lat;lon;timestamp;temperature;humidity
82788;DHT22;72529;51.786;4.662;2024-03-07T00:01:47;8.20;77.41
82788;DHT22;72529;51.786;4.662;2024-03-07T00:04:13;8.16;77.42
82788;DHT22;72529;51.786;4.662;2024-03-07T00:06:38;8.15;77.55
82788;DHT22;72529;51.786;4.662;2024-03-07T00:09:05;8.12;77.71
82788;DHT22;72529;51.786;4.662;2024-03-07T00:11:31;8.12;77.80
82788;DHT22;72529;51.786;4.662;2024-03-07T00:13:57;8.08;77.84
82788;DHT22;72529;51.786;4.662;2024-03-07T00:16:22;8.05;77.75
82788;DHT22;72529;51.786;4.662;2024-03-07T00:18:48;8.04;77.73
82788;DHT22;72529;51.786;4.662;2024-03-07T00:21:13;8.02;77.84
82788;DHT22;72529;51.786;4.662;2024-03-07T00:23:38;8.01;77.76
82788;DHT22;72529;51.786;4.662;2024-03-07T00:26:04;7.95;77.80
82788;DHT22;72529;51.786;4.662;2024-03-07T00:28:29;7.94;77.64
82788;DHT22;72529;51.786;4.662;2024-03-07T00:30:58;7.90;77.68
82788;DHT22;72529;51.786;4.662;2024-03-07T00:33:24;7.90;77.79
82788;DHT22;72529;51.786;4.662;2024-03-07T00:35:50;7.84;77.85
82788;DHT22;72529;51.786;4.662;2024-03-07T00:38:16;7.81;77.84
82788;DHT22;72529;51.786;4.662;2024-03-07T00:40:41;7.80;77.82
82788;DHT22;72529;51.786;4.662;2024-03-07T00:43:06;7.77;77.76
82788;DHT22;72529;51.786;4.662;2024-03-07T00:45:32;7.73;77.82
82788;DHT22;72529;51.786;4.662;2024-03-07T00:47:58;7.73;77.93
82788;DHT22;72529;51.786;4.662;2024-03-07T00:50:24;7.70;77.89
82788;DHT22;72529;51.786;4.662;2024-03-07T00:52:50;7.67;77.91
82788;DHT22;72529;51.786;4.662;2024-03-07T00:55:16;7.61;77.92
82788;DHT22;72529;51.786;4.662;2024-03-07T00:57:41;7.60;77.96
82788;DHT22;72529;51.786;4.662;2024-03-07T01:00:07;7.64;77.90
82788;DHT22;72529;51.786;4.662;2024-03-07T01:02:40;7.60;77.90
82788;DHT22;72529;51.786;4.662;2024-03-07T01:05:09;7.53;77.82
82788;DHT22;72529;51.786;4.662;2024-03-07T01:07:35;7.51;77.91
82788;DHT22;72529;51.786;4.662;2024-03-07T01:10:03;7.50;78.00
82788;DHT22;72529;51.786;4.662;2024-03-07T01:12:31;7.49;78.13
82788;DHT22;72529;51.786;4.662;2024-03-07T01:14:57;7.47;77.90
82788;DHT22;72529;51.786;4.662;2024-03-07T01:17:24;7.47;78.11
82788;DHT22;72529;51.786;4.662;2024-03-07T01:19:49;7.44;78.16
82788;DHT22;72529;51.786;4.662;2024-03-07T01:22:14;7.44;78.28
82788;DHT22;72529;51.786;4.662;2024-03-07T01:24:40;7.42;78.24
82788;DHT22;72529;51.786;4.662;2024-03-07T01:27:06;7.44;78.26
82788;DHT22;72529;51.786;4.662;2024-03-07T01:29:31;7.40;78.41
82788;DHT22;72529;51.786;4.662;2024-03-07T01:31:56;7.34;78.34
82788;DHT22;72529;51.786;4.662;2024-03-07T01:34:22;7.34;78.55
82788;DHT22;72529;51.786;4.662;2024-03-07T01:36:47;7.30;78.58
82788;DHT22;72529;51.786;4.662;2024-03-07T01:39:13;7.27;78.58
82788;DHT22;72529;51.786;4.662;2024-03-07T01:41:39;7.30;78.72
82788;DHT22;72529;51.786;4.662;2024-03-07T01:44:05;7.24;78.73
82788;DHT22;72529;51.786;4.662;2024-03-07T01:46:33;7.27;78.63
82788;DHT22;72529;51.786;4.662;2024-03-07T01:48:59;7.23;78.54
82788;DHT22;72529;51.786;4.662;2024-03-07T01:51:25;7.22;78.61
82788;DHT22;72529;51.786;4.662;2024-03-07T01:53:52;7.19;78.60
82788;DHT22;72529;51.786;4.662;2024-03-07T01:56:19;7.17;78.73
82788;DHT22;72529;51.786;4.662;2024-03-07T01:58:46;7.16;78.64
82788;DHT22;72529;51.786;4.662;2024-03-07T02:01:13;7.17;78.78
82788;DHT22;72529;51.786;4.662;2024-03-07T02:03:41;7.07;78.72
82788;DHT22;72529;51.786;4.662;2024-03-07T02:06:07;7.07;78.91
82788;DHT22;72529;51.786;4.662;2024-03-07T02:08:33;7.06;79.01
82788;DHT22;72529;51.786;4.662;2024-03-07T02:11:00;7.05;79.10
82788;DHT22;72529;51.786;4.662;2024-03-07T02:13:26;7.00;79.11
82788;DHT22;72529;51.786;4.662;2024-03-07T02:15:52;7.00;79.11
82788;DHT22;72529;51.786;4.662;2024-03-07T02:18:20;7.00;79.37
82788;DHT22;72529;51.786;4.662;2024-03-07T02:20:46;6.99;79.58
82788;DHT22;72529;51.786;4.662;2024-03-07T02:23:12;6.99;79.64
82788;DHT22;72529;51.786;4.662;2024-03-07T02:25:37;6.96;79.45
82788;DHT22;72529;51.786;4.662;2024-03-07T02:28:06;6.92;79.26
82788;DHT22;72529;51.786;4.662;2024-03-07T02:30:32;6.95;79.26
82788;DHT22;72529;51.786;4.662;2024-03-07T02:32:59;6.95;79.30
82788;DHT22;72529;51.786;4.662;2024-03-07T02:35:32;6.91;79.24
82788;DHT22;72529;51.786;4.662;2024-03-07T02:37:59;6.96;79.16
82788;DHT22;72529;51.786;4.662;2024-03-07T02:40:24;6.88;78.84
82788;DHT22;72529;51.786;4.662;2024-03-07T02:42:50;6.81;79.03
82788;DHT22;72529;51.786;4.662;2024-03-07T02:45:15;6.75;79.07
82788;DHT22;72529;51.786;4.662;2024-03-07T02:47:41;6.81;79.40
82788;DHT22;72529;51.786;4.662;2024-03-07T02:50:09;6.75;79.28
82788;DHT22;72529;51.786;4.662;2024-03-07T02:52:34;6.72;79.36
82788;DHT22;72529;51.786;4.662;2024-03-07T02:55:00;6.71;79.57
82788;DHT22;72529;51.786;4.662;2024-03-07T02:57:25;6.65;79.55
82788;DHT22;72529;51.786;4.662;2024-03-07T02:59:51;6.56;79.74
82788;DHT22;72529;51.786;4.662;2024-03-07T03:02:16;6.59;79.97
82788;DHT22;72529;51.786;4.662;2024-03-07T03:04:42;6.58;79.91
82788;DHT22;72529;51.786;4.662;2024-03-07T03:07:07;6.62;80.13
82788;DHT22;72529;51.786;4.662;2024-03-07T03:09:33;6.64;80.12
82788;DHT22;72529;51.786;4.662;2024-03-07T03:11:59;6.56;80.25
82788;DHT22;72529;51.786;4.662;2024-03-07T03:14:24;6.55;80.31
82788;DHT22;72529;51.786;4.662;2024-03-07T03:16:49;6.52;80.03
82788;DHT22;72529;51.786;4.662;2024-03-07T03:19:15;6.48;80.24
82788;DHT22;72529;51.786;4.662;2024-03-07T03:21:41;6.46;80.23
82788;DHT22;72529;51.786;4.662;2024-03-07T03:24:07;6.48;80.42
82788;DHT22;72529;51.786;4.662;2024-03-07T03:26:33;6.48;80.38
82788;DHT22;72529;51.786;4.662;2024-03-07T03:28:58;6.44;80.54
82788;DHT22;72529;51.786;4.662;2024-03-07T03:31:24;6.48;80.58
82788;DHT22;72529;51.786;4.662;2024-03-07T03:33:50;6.48;80.61
82788;DHT22;72529;51.786;4.662;2024-03-07T03:36:16;6.46;80.60
82788;DHT22;72529;51.786;4.662;2024-03-07T03:38:41;6.35;80.67
82788;DHT22;72529;51.786;4.662;2024-03-07T03:41:07;6.37;80.78
82788;DHT22;72529;51.786;4.662;2024-03-07T03:43:32;6.37;80.91
82788;DHT22;72529;51.786;4.662;2024-03-07T03:45:58;6.41;80.98
82788;DHT22;72529;51.786;4.662;2024-03-07T03:48:23;6.41;80.77
82788;DHT22;72529;51.786;4.662;2024-03-07T03:50:49;6.49;80.54
82788;DHT22;72529;51.786;4.662;2024-03-07T03:53:14;6.46;80.65
82788;DHT22;72529;51.786;4.662;2024-03-07T03:55:40;6.42;80.68
82788;DHT22;72529;51.786;4.662;2024-03-07T03:58:05;6.44;80.93
82788;DHT22;72529;51.786;4.662;2024-03-07T04:00:30;6.48;81.06
82788;DHT22;72529;51.786;4.662;2024-03-07T04:02:56;6.51;81.06
82788;DHT22;72529;51.786;4.662;2024-03-07T04:05:21;6.55;81.01
82788;DHT22;72529;51.786;4.662;2024-03-07T04:07:47;6.54;81.01
82788;DHT22;72529;51.786;4.662;2024-03-07T04:10:15;6.56;81.04
82788;DHT22;72529;51.786;4.662;2024-03-07T04:12:42;6.59;80.81
82788;DHT22;72529;51.786;4.662;2024-03-07T04:15:10;6.49;80.47
82788;DHT22;72529;51.786;4.662;2024-03-07T04:17:36;6.45;80.65
82788;DHT22;72529;51.786;4.662;2024-03-07T04:20:06;6.49;80.78
82788;DHT22;72529;51.786;4.662;2024-03-07T04:22:33;6.54;80.71
82788;DHT22;72529;51.786;4.662;2024-03-07T04:25:00;6.42;80.70
82788;DHT22;72529;51.786;4.662;2024-03-07T04:27:26;6.41;80.93
82788;DHT22;72529;51.786;4.662;2024-03-07T04:29:52;6.40;80.81
82788;DHT22;72529;51.786;4.662;2024-03-07T04:32:17;6.31;81.00
82788;DHT22;72529;51.786;4.662;2024-03-07T04:34:47;6.28;81.07
82788;DHT22;72529;51.786;4.662;2024-03-07T04:37:12;6.48;81.01
82788;DHT22;72529;51.786;4.662;2024-03-07T04:39:41;6.45;81.20
82788;DHT22;72529;51.786;4.662;2024-03-07T04:42:08;6.42;81.10
82788;DHT22;72529;51.786;4.662;2024-03-07T04:44:35;6.37;81.00
82788;DHT22;72529;51.786;4.662;2024-03-07T04:47:02;6.31;80.88
82788;DHT22;72529;51.786;4.662;2024-03-07T04:49:30;6.33;80.92
82788;DHT22;72529;51.786;4.662;2024-03-07T04:51:59;6.38;81.05
82788;DHT22;72529;51.786;4.662;2024-03-07T04:54:26;6.37;81.09
82788;DHT22;72529;51.786;4.662;2024-03-07T04:56:52;6.31;80.96
82788;DHT22;72529;51.786;4.662;2024-03-07T04:59:19;6.31;80.96
82788;DHT22;72529;51.786;4.662;2024-03-07T05:01:46;6.35;80.99
82788;DHT22;72529;51.786;4.662;2024-03-07T05:04:12;6.35;80.81
82788;DHT22;72529;51.786;4.662;2024-03-07T05:06:39;6.31;80.69
82788;DHT22;72529;51.786;4.662;2024-03-07T05:09:06;6.38;80.95
82788;DHT22;72529;51.786;4.662;2024-03-07T05:11:34;6.38;80.81
82788;DHT22;72529;51.786;4.662;2024-03-07T05:14:00;6.34;80.61
82788;DHT22;72529;51.786;4.662;2024-03-07T05:16:30;6.34;80.85
82788;DHT22;72529;51.786;4.662;2024-03-07T05:18:56;6.33;80.88
82788;DHT22;72529;51.786;4.662;2024-03-07T05:21:25;6.33;80.71
82788;DHT22;72529;51.786;4.662;2024-03-07T05:24:07;6.37;80.72
82788;DHT22;72529;51.786;4.662;2024-03-07T05:26:36;6.41;80.68
82788;DHT22;72529;51.786;4.662;2024-03-07T05:29:07;6.41;80.50
82788;DHT22;72529;51.786;4.662;2024-03-07T05:31:34;6.40;80.40
82788;DHT22;72529;51.786;4.662;2024-03-07T05:34:06;6.34;80.36
82788;DHT22;72529;51.786;4.662;2024-03-07T05:36:37;6.28;80.63
82788;DHT22;72529;51.786;4.662;2024-03-07T05:39:10;6.34;80.68
82788;DHT22;72529;51.786;4.662;2024-03-07T05:41:39;6.34;80.49
82788;DHT22;72529;51.786;4.662;2024-03-07T05:44:06;6.33;80.27
82788;DHT22;72529;51.786;4.662;2024-03-07T05:46:38;6.24;80.46
82788;DHT22;72529;51.786;4.662;2024-03-07T05:49:08;6.27;80.47
82788;DHT22;72529;51.786;4.662;2024-03-07T05:51:34;6.18;80.58
82788;DHT22;72529;51.786;4.662;2024-03-07T05:53:59;6.25;80.61
82788;DHT22;72529;51.786;4.662;2024-03-07T05:56:24;6.18;80.81
82788;DHT22;72529;51.786;4.662;2024-03-07T05:58:50;6.13;80.81
82788;DHT22;72529;51.786;4.662;2024-03-07T06:01:17;6.09;80.76
82788;DHT22;72529;51.786;4.662;2024-03-07T06:03:43;6.09;80.63
82788;DHT22;72529;51.786;4.662;2024-03-07T06:06:09;6.13;80.71
82788;DHT22;72529;51.786;4.662;2024-03-07T06:08:37;6.10;80.58
82788;DHT22;72529;51.786;4.662;2024-03-07T06:11:03;6.00;80.68
82788;DHT22;72529;51.786;4.662;2024-03-07T06:13:28;5.99;80.86
82788;DHT22;72529;51.786;4.662;2024-03-07T06:15:53;5.97;80.94
82788;DHT22;72529;51.786;4.662;2024-03-07T06:18:19;5.96;80.88
82788;DHT22;72529;51.786;4.662;2024-03-07T06:20:44;6.03;80.63
82788;DHT22;72529;51.786;4.662;2024-03-07T06:23:10;6.03;80.63
82788;DHT22;72529;51.786;4.662;2024-03-07T06:25:41;6.01;80.78
82788;DHT22;72529;51.786;4.662;2024-03-07T06:28:16;5.94;80.51
82788;DHT22;72529;51.786;4.662;2024-03-07T06:30:44;5.93;80.72
82788;DHT22;72529;51.786;4.662;2024-03-07T06:33:13;5.90;80.65
82788;DHT22;72529;51.786;4.662;2024-03-07T06:35:40;6.01;80.45
82788;DHT22;72529;51.786;4.662;2024-03-07T06:38:07;6.00;80.72
82788;DHT22;72529;51.786;4.662;2024-03-07T06:40:37;5.99;80.48
82788;DHT22;72529;51.786;4.662;2024-03-07T06:43:03;6.00;80.75
82788;DHT22;72529;51.786;4.662;2024-03-07T06:45:29;5.93;80.64
82788;DHT22;72529;51.786;4.662;2024-03-07T06:47:55;6.09;80.62
82788;DHT22;72529;51.786;4.662;2024-03-07T06:50:20;6.21;80.35
82788;DHT22;72529;51.786;4.662;2024-03-07T06:52:47;6.11;80.21
82788;DHT22;72529;51.786;4.662;2024-03-07T06:55:16;6.11;80.47
82788;DHT22;72529;51.786;4.662;2024-03-07T06:57:43;6.10;80.14
82788;DHT22;72529;51.786;4.662;2024-03-07T07:00:10;6.06;80.29
82788;DHT22;72529;51.786;4.662;2024-03-07T07:02:39;6.10;80.55
82788;DHT22;72529;51.786;4.662;2024-03-07T07:05:07;6.09;80.39
82788;DHT22;72529;51.786;4.662;2024-03-07T07:07:44;6.07;80.52
82788;DHT22;72529;51.786;4.662;2024-03-07T07:10:11;6.11;80.79
82788;DHT22;72529;51.786;4.662;2024-03-07T07:12:49;6.23;80.67
82788;DHT22;72529;51.786;4.662;2024-03-07T07:15:18;6.20;80.43
82788;DHT22;72529;51.786;4.662;2024-03-07T07:17:46;6.33;80.25
82788;DHT22;72529;51.786;4.662;2024-03-07T07:20:15;6.23;80.35
82788;DHT22;72529;51.786;4.662;2024-03-07T07:22:41;6.25;80.44
82788;DHT22;72529;51.786;4.662;2024-03-07T07:25:08;6.24;80.52
82788;DHT22;72529;51.786;4.662;2024-03-07T07:27:41;6.35;80.53
82788;DHT22;72529;51.786;4.662;2024-03-07T07:30:09;6.56;80.25
82788;DHT22;72529;51.786;4.662;2024-03-07T07:32:35;6.54;80.07
82788;DHT22;72529;51.786;4.662;2024-03-07T07:35:02;6.61;79.99
82788;DHT22;72529;51.786;4.662;2024-03-07T07:37:27;6.62;79.94
82788;DHT22;72529;51.786;4.662;2024-03-07T07:39:53;6.71;79.73
82788;DHT22;72529;51.786;4.662;2024-03-07T07:42:18;6.69;79.73
82788;DHT22;72529;51.786;4.662;2024-03-07T07:44:45;6.69;79.46
82788;DHT22;72529;51.786;4.662;2024-03-07T07:47:10;6.74;79.75
82788;DHT22;72529;51.786;4.662;2024-03-07T07:49:39;6.89;79.38
82788;DHT22;72529;51.786;4.662;2024-03-07T07:52:05;7.00;79.31
82788;DHT22;72529;51.786;4.662;2024-03-07T07:54:31;6.96;79.16
82788;DHT22;72529;51.786;4.662;2024-03-07T07:56:57;7.10;79.20
82788;DHT22;72529;51.786;4.662;2024-03-07T07:59:22;7.13;78.80
82788;DHT22;72529;51.786;4.662;2024-03-07T08:01:47;7.26;78.48
82788;DHT22;72529;51.786;4.662;2024-03-07T08:04:13;7.30;78.73
82788;DHT22;72529;51.786;4.662;2024-03-07T08:06:39;7.46;77.96
82788;DHT22;72529;51.786;4.662;2024-03-07T08:09:04;7.51;78.40
82788;DHT22;72529;51.786;4.662;2024-03-07T08:11:35;7.50;78.05
82788;DHT22;72529;51.786;4.662;2024-03-07T08:14:02;7.59;78.15
82788;DHT22;72529;51.786;4.662;2024-03-07T08:16:28;7.78;77.43
82788;DHT22;72529;51.786;4.662;2024-03-07T08:18:53;7.73;77.13
82788;DHT22;72529;51.786;4.662;2024-03-07T08:21:18;7.95;76.70
82788;DHT22;72529;51.786;4.662;2024-03-07T08:23:44;7.91;76.49
82788;DHT22;72529;51.786;4.662;2024-03-07T08:26:11;8.02;76.26
82788;DHT22;72529;51.786;4.662;2024-03-07T08:28:37;8.22;74.89
82788;DHT22;72529;51.786;4.662;2024-03-07T08:31:03;8.28;74.75
82788;DHT22;72529;51.786;4.662;2024-03-07T08:33:29;8.38;73.40
82788;DHT22;72529;51.786;4.662;2024-03-07T08:35:58;8.31;74.23
82788;DHT22;72529;51.786;4.662;2024-03-07T08:38:24;8.46;72.77
82788;DHT22;72529;51.786;4.662;2024-03-07T08:40:50;8.57;73.24
82788;DHT22;72529;51.786;4.662;2024-03-07T08:43:15;8.57;72.82
82788;DHT22;72529;51.786;4.662;2024-03-07T08:45:41;8.69;72.47
82788;DHT22;72529;51.786;4.662;2024-03-07T08:48:07;8.65;72.42
82788;DHT22;72529;51.786;4.662;2024-03-07T08:50:34;8.80;71.59
82788;DHT22;72529;51.786;4.662;2024-03-07T08:52:59;8.83;72.16
82788;DHT22;72529;51.786;4.662;2024-03-07T08:55:26;8.87;71.47
82788;DHT22;72529;51.786;4.662;2024-03-07T08:57:51;8.94;71.51
82788;DHT22;72529;51.786;4.662;2024-03-07T09:00:18;9.00;71.75
82788;DHT22;72529;51.786;4.662;2024-03-07T09:02:52;9.10;70.57
82788;DHT22;72529;51.786;4.662;2024-03-07T09:05:20;9.27;70.18
82788;DHT22;72529;51.786;4.662;2024-03-07T09:07:48;9.28;69.55
82788;DHT22;72529;51.786;4.662;2024-03-07T09:10:14;9.23;69.62
82788;DHT22;72529;51.786;4.662;2024-03-07T09:12:40;9.32;68.36
82788;DHT22;72529;51.786;4.662;2024-03-07T09:15:06;9.34;68.08
82788;DHT22;72529;51.786;4.662;2024-03-07T09:17:31;9.35;68.47
82788;DHT22;72529;51.786;4.662;2024-03-07T09:19:57;9.37;68.64
82788;DHT22;72529;51.786;4.662;2024-03-07T09:22:23;9.38;66.81
82788;DHT22;72529;51.786;4.662;2024-03-07T09:24:48;9.38;67.89
82788;DHT22;72529;51.786;4.662;2024-03-07T09:27:13;9.41;68.26
82788;DHT22;72529;51.786;4.662;2024-03-07T09:29:40;9.52;68.72
82788;DHT22;72529;51.786;4.662;2024-03-07T09:32:06;9.65;67.95
82788;DHT22;72529;51.786;4.662;2024-03-07T09:34:34;9.79;67.16
82788;DHT22;72529;51.786;4.662;2024-03-07T09:37:01;9.79;66.86
82788;DHT22;72529;51.786;4.662;2024-03-07T09:39:27;9.85;66.44
82788;DHT22;72529;51.786;4.662;2024-03-07T09:41:53;9.98;65.59
82788;DHT22;72529;51.786;4.662;2024-03-07T09:44:24;9.93;64.87
82788;DHT22;72529;51.786;4.662;2024-03-07T09:46:54;10.02;65.41
82788;DHT22;72529;51.786;4.662;2024-03-07T09:49:20;10.05;64.45
82788;DHT22;72529;51.786;4.662;2024-03-07T09:51:48;10.08;64.91
82788;DHT22;72529;51.786;4.662;2024-03-07T09:54:20;10.15;66.03
82788;DHT22;72529;51.786;4.662;2024-03-07T09:56:47;10.13;64.65
82788;DHT22;72529;51.786;4.662;2024-03-07T09:59:19;10.17;64.50
82788;DHT22;72529;51.786;4.662;2024-03-07T10:01:47;10.20;63.92
82788;DHT22;72529;51.786;4.662;2024-03-07T10:04:26;10.42;64.24
82788;DHT22;72529;51.786;4.662;2024-03-07T10:06:54;10.73;64.34
82788;DHT22;72529;51.786;4.662;2024-03-07T10:09:22;10.84;63.96
82788;DHT22;72529;51.786;4.662;2024-03-07T10:11:59;10.94;62.71
82788;DHT22;72529;51.786;4.662;2024-03-07T10:14:25;10.83;63.01
82788;DHT22;72529;51.786;4.662;2024-03-07T10:16:53;10.87;62.32
82788;DHT22;72529;51.786;4.662;2024-03-07T10:19:21;10.71;63.15
82788;DHT22;72529;51.786;4.662;2024-03-07T10:21:47;10.80;63.21
82788;DHT22;72529;51.786;4.662;2024-03-07T10:24:12;10.87;63.42
82788;DHT22;72529;51.786;4.662;2024-03-07T10:26:38;11.00;61.98
82788;DHT22;72529;51.786;4.662;2024-03-07T10:29:07;10.98;62.40
82788;DHT22;72529;51.786;4.662;2024-03-07T10:31:35;11.00;61.30
82788;DHT22;72529;51.786;4.662;2024-03-07T10:34:04;11.08;61.01
82788;DHT22;72529;51.786;4.662;2024-03-07T10:36:33;11.11;60.40
82788;DHT22;72529;51.786;4.662;2024-03-07T10:39:02;11.10;60.50
82788;DHT22;72529;51.786;4.662;2024-03-07T10:41:35;11.17;61.06
82788;DHT22;72529;51.786;4.662;2024-03-07T10:44:04;11.27;60.56
82788;DHT22;72529;51.786;4.662;2024-03-07T10:46:30;11.45;60.52
82788;DHT22;72529;51.786;4.662;2024-03-07T10:48:59;11.52;59.64
82788;DHT22;72529;51.786;4.662;2024-03-07T10:51:44;11.55;59.80
82788;DHT22;72529;51.786;4.662;2024-03-07T10:54:22;11.58;60.90
82788;DHT22;72529;51.786;4.662;2024-03-07T10:57:16;11.65;59.46
82788;DHT22;72529;51.786;4.662;2024-03-07T10:59:50;11.81;59.88
82788;DHT22;72529;51.786;4.662;2024-03-07T11:02:37;11.81;59.45
82788;DHT22;72529;51.786;4.662;2024-03-07T11:05:10;12.00;59.85
82788;DHT22;72529;51.786;4.662;2024-03-07T11:07:38;12.07;58.05
82788;DHT22;72529;51.786;4.662;2024-03-07T11:10:05;11.96;59.28
82788;DHT22;72529;51.786;4.662;2024-03-07T11:12:38;12.06;57.78
82788;DHT22;72529;51.786;4.662;2024-03-07T11:15:08;12.09;55.79
82788;DHT22;72529;51.786;4.662;2024-03-07T11:17:44;11.93;56.81
82788;DHT22;72529;51.786;4.662;2024-03-07T11:20:25;11.97;56.33
82788;DHT22;72529;51.786;4.662;2024-03-07T11:22:51;12.06;57.06
82788;DHT22;72529;51.786;4.662;2024-03-07T11:25:20;12.12;56.32
82788;DHT22;72529;51.786;4.662;2024-03-07T11:27:59;12.24;56.90
82788;DHT22;72529;51.786;4.662;2024-03-07T11:30:25;12.24;56.36
82788;DHT22;72529;51.786;4.662;2024-03-07T11:32:53;12.32;56.06
82788;DHT22;72529;51.786;4.662;2024-03-07T11:35:31;12.41;55.47
82788;DHT22;72529;51.786;4.662;2024-03-07T11:37:58;12.53;57.65
82788;DHT22;72529;51.786;4.662;2024-03-07T11:42:54;12.67;56.53
82788;DHT22;72529;51.786;4.662;2024-03-07T11:45:24;12.61;56.90
82788;DHT22;72529;51.786;4.662;2024-03-07T11:47:54;12.60;57.48
82788;DHT22;72529;51.786;4.662;2024-03-07T11:50:26;12.81;56.22
82788;DHT22;72529;51.786;4.662;2024-03-07T11:52:52;12.83;55.71
82788;DHT22;72529;51.786;4.662;2024-03-07T11:55:23;12.85;56.17
82788;DHT22;72529;51.786;4.662;2024-03-07T11:57:50;12.87;55.94
82788;DHT22;72529;51.786;4.662;2024-03-07T12:00:17;12.83;55.32
82788;DHT22;72529;51.786;4.662;2024-03-07T12:02:44;12.69;57.01
82788;DHT22;72529;51.786;4.662;2024-03-07T12:05:09;12.83;55.98
82788;DHT22;72529;51.786;4.662;2024-03-07T12:07:36;12.97;56.63
82788;DHT22;72529;51.786;4.662;2024-03-07T12:10:02;13.08;56.61
82788;DHT22;72529;51.786;4.662;2024-03-07T12:12:32;12.94;55.60
82788;DHT22;72529;51.786;4.662;2024-03-07T12:14:58;12.88;55.14
82788;DHT22;72529;51.786;4.662;2024-03-07T12:17:25;12.80;56.19
82788;DHT22;72529;51.786;4.662;2024-03-07T12:19:51;12.94;54.58
82788;DHT22;72529;51.786;4.662;2024-03-07T12:22:19;13.09;55.54
82788;DHT22;72529;51.786;4.662;2024-03-07T12:24:59;13.11;55.90
82788;DHT22;72529;51.786;4.662;2024-03-07T12:27:27;12.91;55.15
82788;DHT22;72529;51.786;4.662;2024-03-07T12:29:54;12.92;55.27
82788;DHT22;72529;51.786;4.662;2024-03-07T12:32:19;12.91;55.09
82788;DHT22;72529;51.786;4.662;2024-03-07T12:34:46;12.88;55.08
82788;DHT22;72529;51.786;4.662;2024-03-07T12:37:13;12.99;55.17
82788;DHT22;72529;51.786;4.662;2024-03-07T12:39:45;13.16;53.53
82788;DHT22;72529;51.786;4.662;2024-03-07T12:42:18;13.32;52.90
82788;DHT22;72529;51.786;4.662;2024-03-07T12:44:46;13.36;53.17
82788;DHT22;72529;51.786;4.662;2024-03-07T12:47:16;13.49;51.81
82788;DHT22;72529;51.786;4.662;2024-03-07T12:49:45;13.48;52.34
82788;DHT22;72529;51.786;4.662;2024-03-07T12:52:13;13.62;52.08
82788;DHT22;72529;51.786;4.662;2024-03-07T12:54:41;13.86;52.28
82788;DHT22;72529;51.786;4.662;2024-03-07T12:57:10;13.93;52.71
82788;DHT22;72529;51.786;4.662;2024-03-07T12:59:39;13.84;51.72
82788;DHT22;72529;51.786;4.662;2024-03-07T13:02:09;13.83;53.99
82788;DHT22;72529;51.786;4.662;2024-03-07T13:04:35;14.07;51.92
82788;DHT22;72529;51.786;4.662;2024-03-07T13:07:03;13.89;51.55
82788;DHT22;72529;51.786;4.662;2024-03-07T13:09:35;13.72;52.42
82788;DHT22;72529;51.786;4.662;2024-03-07T13:12:01;13.90;51.90
82788;DHT22;72529;51.786;4.662;2024-03-07T13:14:30;14.02;51.37
82788;DHT22;72529;51.786;4.662;2024-03-07T13:17:02;13.93;51.43
82788;DHT22;72529;51.786;4.662;2024-03-07T13:19:32;13.70;53.14
82788;DHT22;72529;51.786;4.662;2024-03-07T13:21:58;13.40;54.50
82788;DHT22;72529;51.786;4.662;2024-03-07T13:24:25;13.25;54.06
82788;DHT22;72529;51.786;4.662;2024-03-07T13:26:52;13.07;53.80
82788;DHT22;72529;51.786;4.662;2024-03-07T13:29:18;13.01;54.16
82788;DHT22;72529;51.786;4.662;2024-03-07T13:31:51;12.88;55.17
82788;DHT22;72529;51.786;4.662;2024-03-07T13:34:17;12.73;54.30
82788;DHT22;72529;51.786;4.662;2024-03-07T13:36:44;12.47;55.56
82788;DHT22;72529;51.786;4.662;2024-03-07T13:39:11;12.43;56.15
82788;DHT22;72529;51.786;4.662;2024-03-07T13:41:40;12.32;56.21
82788;DHT22;72529;51.786;4.662;2024-03-07T13:44:05;12.20;56.80
82788;DHT22;72529;51.786;4.662;2024-03-07T13:46:32;12.20;56.91
82788;DHT22;72529;51.786;4.662;2024-03-07T13:49:02;12.24;55.71
82788;DHT22;72529;51.786;4.662;2024-03-07T13:51:43;12.17;55.15
82788;DHT22;72529;51.786;4.662;2024-03-07T13:54:29;12.10;56.59
82788;DHT22;72529;51.786;4.662;2024-03-07T14:00:26;12.30;56.77
82788;DHT22;72529;51.786;4.662;2024-03-07T14:06:09;12.87;54.58
82788;DHT22;72529;51.786;4.662;2024-03-07T14:12:21;13.09;53.78
82788;DHT22;72529;51.786;4.662;2024-03-07T14:18:18;13.48;54.10
82788;DHT22;72529;51.786;4.662;2024-03-07T14:21:15;13.62;54.13
82788;DHT22;72529;51.786;4.662;2024-03-07T14:24:16;13.58;53.82
82788;DHT22;72529;51.786;4.662;2024-03-07T14:30:29;12.71;55.96
82788;DHT22;72529;51.786;4.662;2024-03-07T14:33:06;12.57;56.31
82788;DHT22;72529;51.786;4.662;2024-03-07T14:35:58;12.43;57.27
82788;DHT22;72529;51.786;4.662;2024-03-07T14:38:51;12.41;56.48
82788;DHT22;72529;51.786;4.662;2024-03-07T14:41:23;12.30;57.10
82788;DHT22;72529;51.786;4.662;2024-03-07T14:43:51;12.27;56.48
82788;DHT22;72529;51.786;4.662;2024-03-07T14:46:17;12.22;56.91
82788;DHT22;72529;51.786;4.662;2024-03-07T14:48:43;12.30;58.09
82788;DHT22;72529;51.786;4.662;2024-03-07T14:51:11;12.36;57.70
82788;DHT22;72529;51.786;4.662;2024-03-07T14:53:39;12.48;57.26
82788;DHT22;72529;51.786;4.662;2024-03-07T14:56:07;12.53;56.73
82788;DHT22;72529;51.786;4.662;2024-03-07T14:58:34;12.54;56.58
82788;DHT22;72529;51.786;4.662;2024-03-07T15:01:01;12.32;55.24
82788;DHT22;72529;51.786;4.662;2024-03-07T15:03:27;12.24;56.75
82788;DHT22;72529;51.786;4.662;2024-03-07T15:05:56;12.20;59.89
82788;DHT22;72529;51.786;4.662;2024-03-07T15:08:21;12.19;60.18
82788;DHT22;72529;51.786;4.662;2024-03-07T15:10:54;12.26;60.19
82788;DHT22;72529;51.786;4.662;2024-03-07T15:13:21;12.24;60.40
82788;DHT22;72529;51.786;4.662;2024-03-07T15:15:46;12.17;60.54
82788;DHT22;72529;51.786;4.662;2024-03-07T15:18:12;12.04;61.05
82788;DHT22;72529;51.786;4.662;2024-03-07T15:20:37;11.96;61.40
82788;DHT22;72529;51.786;4.662;2024-03-07T15:23:03;11.73;62.01
82788;DHT22;72529;51.786;4.662;2024-03-07T15:25:29;11.63;63.04
82788;DHT22;72529;51.786;4.662;2024-03-07T15:27:59;11.52;63.52
82788;DHT22;72529;51.786;4.662;2024-03-07T15:30:26;11.43;64.01
82788;DHT22;72529;51.786;4.662;2024-03-07T15:32:58;11.41;64.30
82788;DHT22;72529;51.786;4.662;2024-03-07T15:35:27;11.29;64.32
82788;DHT22;72529;51.786;4.662;2024-03-07T15:37:53;11.17;64.89
82788;DHT22;72529;51.786;4.662;2024-03-07T15:40:20;11.12;65.16
82788;DHT22;72529;51.786;4.662;2024-03-07T15:42:50;11.17;65.39
82788;DHT22;72529;51.786;4.662;2024-03-07T15:45:20;11.15;65.64
82788;DHT22;72529;51.786;4.662;2024-03-07T15:47:57;11.24;64.95
82788;DHT22;72529;51.786;4.662;2024-03-07T15:50:25;11.25;64.71
82788;DHT22;72529;51.786;4.662;2024-03-07T15:52:55;11.36;64.90
82788;DHT22;72529;51.786;4.662;2024-03-07T15:55:21;11.38;65.05
82788;DHT22;72529;51.786;4.662;2024-03-07T15:57:51;11.35;64.77
82788;DHT22;72529;51.786;4.662;2024-03-07T16:00:22;11.24;64.63
82788;DHT22;72529;51.786;4.662;2024-03-07T16:02:54;11.14;65.54
82788;DHT22;72529;51.786;4.662;2024-03-07T16:05:21;11.07;65.45